Memphis, MO

7:34 PM CDT on August 29, 2016 (GMT -0500)
APRSWXNET | | Change Station
Active Advisory: Flash Flood Warning

Elev 931 ft 40.52 °N, 92.52 °W | Updated 36 minutes ago

Partly Cloudy
Partly Cloudy
74 °F
Feels Like 72 °F
N
0
Wind Variable Wind from NE
Gusts 0.0 mph

Today
High -- | Low -- °F
--% Chance of Precip.
Yesterday
High -- | Low -- °F
Precip. -- in
Pressure 30.14 in
Visibility 10.0 miles
Clouds Few 12000 ft
Heat Index 72 °F
Dew Point 71 °F
Humidity 91%
Rainfall in
Snow Depth Not available.
6:33 AM 7:44 PM
Waning Crescent, 6% visible
SPECI KIRK 300008Z AUTO 00000KT 10SM FEW120 27/23 A3014 RMK AO2 LTG DSNT N T02670233
Pressure 30.14 in
Visibility 10.0 miles
Clouds Few 12000 ft
Heat Index 72 °F
Dew Point 71 °F
Humidity 91%
Rainfall in
Snow Depth Not available.
6:33 AM 7:44 PM
Waning Crescent, 6% visible
SPECI KIRK 300008Z AUTO 00000KT 10SM FEW120 27/23 A3014 RMK AO2 LTG DSNT N T02670233

10-Day Weather Forecast

Almanac

Astronomy

Aug. 29, 2016 Rise Set
Actual Time
Civil Twilight
Nautical Twilight
Astronomical Twilight
Moon
Length of Visible Light
Length of Day
Tomorrow will be .
, % of the Moon is Illuminated

Today's Extremes

State Highs State Lows

Community

WunderPhotos

Upload Photos

1,935,705 photos uploaded!

WunderBlog® & News

Nearby

Air Quality

  Air Quality AQ Index Pollutant
Not available.

Snow Depth

Station Depth Elevation

Earthquake Activity

City Distance Mag. Time & Date
Minimum magnitude displayed is 2.5.

Coastal Water Temperatures

Place Temperature

Stations

Nearby Weather Stations

Station Location Temp. Windchill Dew Point Humidity Wind Precip. Elev Updated Type
                   

Watches & Warnings

Flash Flood Warning
Issued: 7:30 PM CDT Aug. 29, 2016 – National Weather Service

... The Flash Flood Warning remains in effect until 1245 am CDT for
Van Buren and northwestern Scotland counties...

At 727 PM CDT... Doppler radar indicated thunderstorms producing
heavy rain across the warned area. 2 to 4 inches of rain have
fallen in the last hour and a half. Flash flooding is expected to
begin shortly. The heaviest rains have fallen along the Fox River,
between Cantril and Milton.

Some locations that will experience flooding include...
Memphis... Birmingham... Milton... Stockport... Cantril... Leando...
Douds... Crawford... Mount Sterling... Morris Park...
Memphis Memorial Airport... Bible Grove...
Van Buren County Fairgrounds... Lebanon... Utica...
Scotland County Fairgrounds and Kilbourn.

Precautionary/preparedness actions...

Turn around... don't drown when encountering flooded roads. Most flood
deaths occur in vehicles.

Please report flooding to your local law enforcement agency when you
can do so safely.


Lat... Lon 4059 9235 4060 9218 4082 9218 4087 9208
      4090 9172 4077 9172 4030 9235


Ervin